San Jose, Texas
Current Conditions -  °F | °C
As of 7:53 AM on Friday 31 Oct 2014 (Local Time) from KALI Reporting Station
Thunderstorm Thunderstorm  
Wind Chill: 68°   Ceiling: 1200
Heat Index: 68°   Visibility: 8mi
Dew Point: 67°   Wind: 14mph
Humidity: 96%   Direction: 30°NNE
Pressure: 30.12"   Gusts: 28mph
Location:  27.6821°N, 98.1034°W
Report Text: KALI 311253Z AUTO 03012G24KT 8SM VCTS FEW004 BKN012 OVC085 20/19 A3012 RMK AO2 LTG DSNT ALQDS SLP199 T02000194
Loading
Personal Weather Stations






























Interactive Weather Map
Tropical Storm Tracking
New forecast layout! Learn more

10-Day Weather Forecast

Advertisements
Track Severe Weather on mobile